sensor_id;sensor_type;location;lat;lon;timestamp;temperature;humidity
37002;DHT22;22913;51.910;8.374;2023-03-26T00:00:16;8.20;99.90
37002;DHT22;22913;51.910;8.374;2023-03-26T00:03:04;8.20;99.90
37002;DHT22;22913;51.910;8.374;2023-03-26T00:06:00;8.20;99.90
37002;DHT22;22913;51.910;8.374;2023-03-26T00:08:47;8.20;99.90
37002;DHT22;22913;51.910;8.374;2023-03-26T00:11:33;8.30;99.90
37002;DHT22;22913;51.910;8.374;2023-03-26T00:14:19;8.30;99.90
37002;DHT22;22913;51.910;8.374;2023-03-26T00:17:05;8.30;99.90
37002;DHT22;22913;51.910;8.374;2023-03-26T00:19:53;8.20;99.90
37002;DHT22;22913;51.910;8.374;2023-03-26T00:22:40;8.30;99.90
37002;DHT22;22913;51.910;8.374;2023-03-26T00:25:25;8.30;99.90
37002;DHT22;22913;51.910;8.374;2023-03-26T00:28:11;8.30;99.90
37002;DHT22;22913;51.910;8.374;2023-03-26T00:31:02;8.20;99.90
37002;DHT22;22913;51.910;8.374;2023-03-26T00:33:49;8.30;99.90
37002;DHT22;22913;51.910;8.374;2023-03-26T00:36:38;8.30;99.90
37002;DHT22;22913;51.910;8.374;2023-03-26T00:39:25;8.30;99.90
37002;DHT22;22913;51.910;8.374;2023-03-26T00:42:12;8.30;99.90
37002;DHT22;22913;51.910;8.374;2023-03-26T00:44:58;8.30;99.90
37002;DHT22;22913;51.910;8.374;2023-03-26T00:47:44;8.30;99.90
37002;DHT22;22913;51.910;8.374;2023-03-26T00:50:30;8.30;99.90
37002;DHT22;22913;51.910;8.374;2023-03-26T00:53:17;8.40;99.90
37002;DHT22;22913;51.910;8.374;2023-03-26T00:56:04;8.30;99.90
37002;DHT22;22913;51.910;8.374;2023-03-26T00:58:50;8.30;99.90
37002;DHT22;22913;51.910;8.374;2023-03-26T01:01:35;8.30;99.90
37002;DHT22;22913;51.910;8.374;2023-03-26T01:04:28;8.30;99.90
37002;DHT22;22913;51.910;8.374;2023-03-26T01:07:18;8.30;99.90
37002;DHT22;22913;51.910;8.374;2023-03-26T01:10:06;8.30;99.90
37002;DHT22;22913;51.910;8.374;2023-03-26T01:12:52;8.30;99.90
37002;DHT22;22913;51.910;8.374;2023-03-26T01:15:38;8.40;99.90
37002;DHT22;22913;51.910;8.374;2023-03-26T01:18:24;8.30;99.90
37002;DHT22;22913;51.910;8.374;2023-03-26T01:21:10;8.30;99.90
37002;DHT22;22913;51.910;8.374;2023-03-26T01:24:00;8.30;99.90
37002;DHT22;22913;51.910;8.374;2023-03-26T01:26:53;8.20;99.90
37002;DHT22;22913;51.910;8.374;2023-03-26T01:29:43;8.30;99.90
37002;DHT22;22913;51.910;8.374;2023-03-26T01:32:42;8.30;99.90
37002;DHT22;22913;51.910;8.374;2023-03-26T01:35:35;8.20;99.90
37002;DHT22;22913;51.910;8.374;2023-03-26T01:38:28;8.20;99.90
37002;DHT22;22913;51.910;8.374;2023-03-26T01:41:23;8.20;99.90
37002;DHT22;22913;51.910;8.374;2023-03-26T01:44:17;8.30;99.90
37002;DHT22;22913;51.910;8.374;2023-03-26T01:47:06;8.20;99.90
37002;DHT22;22913;51.910;8.374;2023-03-26T01:49:52;8.20;99.90
37002;DHT22;22913;51.910;8.374;2023-03-26T01:52:38;8.20;99.90
37002;DHT22;22913;51.910;8.374;2023-03-26T01:55:26;8.20;99.90
37002;DHT22;22913;51.910;8.374;2023-03-26T01:58:21;8.20;99.90
37002;DHT22;22913;51.910;8.374;2023-03-26T02:01:15;8.30;99.90
37002;DHT22;22913;51.910;8.374;2023-03-26T02:04:07;8.30;99.90
37002;DHT22;22913;51.910;8.374;2023-03-26T02:06:59;8.30;99.90
37002;DHT22;22913;51.910;8.374;2023-03-26T02:09:50;8.30;99.90
37002;DHT22;22913;51.910;8.374;2023-03-26T02:12:38;8.20;99.90
37002;DHT22;22913;51.910;8.374;2023-03-26T02:15:25;8.30;99.90
37002;DHT22;22913;51.910;8.374;2023-03-26T02:18:11;8.20;99.90
37002;DHT22;22913;51.910;8.374;2023-03-26T02:20:56;8.30;99.90
37002;DHT22;22913;51.910;8.374;2023-03-26T02:23:43;8.30;99.90
37002;DHT22;22913;51.910;8.374;2023-03-26T02:26:31;8.30;99.90
37002;DHT22;22913;51.910;8.374;2023-03-26T02:29:17;8.20;99.90
37002;DHT22;22913;51.910;8.374;2023-03-26T02:32:05;8.30;99.90
37002;DHT22;22913;51.910;8.374;2023-03-26T02:34:51;8.30;99.90
37002;DHT22;22913;51.910;8.374;2023-03-26T02:37:37;8.40;99.90
37002;DHT22;22913;51.910;8.374;2023-03-26T02:40:23;8.40;99.90
37002;DHT22;22913;51.910;8.374;2023-03-26T02:43:09;8.40;99.90
37002;DHT22;22913;51.910;8.374;2023-03-26T02:45:55;8.40;99.90
37002;DHT22;22913;51.910;8.374;2023-03-26T02:48:42;8.40;99.90
37002;DHT22;22913;51.910;8.374;2023-03-26T02:51:27;8.40;99.90
37002;DHT22;22913;51.910;8.374;2023-03-26T02:54:13;8.40;99.90
37002;DHT22;22913;51.910;8.374;2023-03-26T02:56:59;8.40;99.90
37002;DHT22;22913;51.910;8.374;2023-03-26T02:59:45;8.40;99.90
37002;DHT22;22913;51.910;8.374;2023-03-26T03:02:33;8.40;99.90
37002;DHT22;22913;51.910;8.374;2023-03-26T03:05:22;8.40;99.90
37002;DHT22;22913;51.910;8.374;2023-03-26T03:08:09;8.40;99.90
37002;DHT22;22913;51.910;8.374;2023-03-26T03:10:56;8.50;99.90
37002;DHT22;22913;51.910;8.374;2023-03-26T03:13:42;8.50;99.90
37002;DHT22;22913;51.910;8.374;2023-03-26T03:16:28;8.50;99.90
37002;DHT22;22913;51.910;8.374;2023-03-26T03:19:14;8.50;99.90
37002;DHT22;22913;51.910;8.374;2023-03-26T03:22:01;8.50;99.90
37002;DHT22;22913;51.910;8.374;2023-03-26T03:24:46;8.50;99.90
37002;DHT22;22913;51.910;8.374;2023-03-26T03:27:32;8.50;99.90
37002;DHT22;22913;51.910;8.374;2023-03-26T03:30:18;8.50;99.90
37002;DHT22;22913;51.910;8.374;2023-03-26T03:33:04;8.50;99.90
37002;DHT22;22913;51.910;8.374;2023-03-26T03:35:50;8.50;99.90
37002;DHT22;22913;51.910;8.374;2023-03-26T03:38:37;8.50;99.90
37002;DHT22;22913;51.910;8.374;2023-03-26T03:41:22;8.60;99.90
37002;DHT22;22913;51.910;8.374;2023-03-26T03:44:08;8.50;99.90
37002;DHT22;22913;51.910;8.374;2023-03-26T03:46:54;8.60;99.90
37002;DHT22;22913;51.910;8.374;2023-03-26T03:49:40;8.60;99.90
37002;DHT22;22913;51.910;8.374;2023-03-26T03:52:25;8.60;99.90
37002;DHT22;22913;51.910;8.374;2023-03-26T03:55:12;8.60;99.90
37002;DHT22;22913;51.910;8.374;2023-03-26T03:57:58;8.60;99.90
37002;DHT22;22913;51.910;8.374;2023-03-26T04:00:43;8.50;99.90
37002;DHT22;22913;51.910;8.374;2023-03-26T04:03:29;8.60;99.90
37002;DHT22;22913;51.910;8.374;2023-03-26T04:06:15;8.60;99.90
37002;DHT22;22913;51.910;8.374;2023-03-26T04:09:02;8.60;99.90
37002;DHT22;22913;51.910;8.374;2023-03-26T04:11:49;8.60;99.90
37002;DHT22;22913;51.910;8.374;2023-03-26T04:14:35;8.60;99.90
37002;DHT22;22913;51.910;8.374;2023-03-26T04:17:21;8.60;99.90
37002;DHT22;22913;51.910;8.374;2023-03-26T04:20:08;8.60;99.90
37002;DHT22;22913;51.910;8.374;2023-03-26T04:22:57;8.60;99.90
37002;DHT22;22913;51.910;8.374;2023-03-26T04:25:44;8.60;99.90
37002;DHT22;22913;51.910;8.374;2023-03-26T04:28:34;8.60;99.90
37002;DHT22;22913;51.910;8.374;2023-03-26T04:31:25;8.60;99.90
37002;DHT22;22913;51.910;8.374;2023-03-26T04:34:19;8.70;99.90
37002;DHT22;22913;51.910;8.374;2023-03-26T04:37:08;8.70;99.90
37002;DHT22;22913;51.910;8.374;2023-03-26T04:39:55;8.70;99.90
37002;DHT22;22913;51.910;8.374;2023-03-26T04:42:41;8.70;99.90
37002;DHT22;22913;51.910;8.374;2023-03-26T04:45:30;8.60;99.90
37002;DHT22;22913;51.910;8.374;2023-03-26T04:48:16;8.60;99.90
37002;DHT22;22913;51.910;8.374;2023-03-26T04:51:02;8.60;99.90
37002;DHT22;22913;51.910;8.374;2023-03-26T04:53:54;8.60;99.90
37002;DHT22;22913;51.910;8.374;2023-03-26T04:56:48;8.70;99.90
37002;DHT22;22913;51.910;8.374;2023-03-26T04:59:35;8.80;99.90
37002;DHT22;22913;51.910;8.374;2023-03-26T05:02:26;8.80;99.90
37002;DHT22;22913;51.910;8.374;2023-03-26T05:05:12;8.70;99.90
37002;DHT22;22913;51.910;8.374;2023-03-26T05:07:57;8.80;99.90
37002;DHT22;22913;51.910;8.374;2023-03-26T05:10:43;8.80;99.90
37002;DHT22;22913;51.910;8.374;2023-03-26T05:13:29;8.80;99.90
37002;DHT22;22913;51.910;8.374;2023-03-26T05:16:15;8.80;99.90
37002;DHT22;22913;51.910;8.374;2023-03-26T05:19:02;8.80;99.90
37002;DHT22;22913;51.910;8.374;2023-03-26T05:21:47;8.80;99.90
37002;DHT22;22913;51.910;8.374;2023-03-26T05:24:33;8.80;99.90
37002;DHT22;22913;51.910;8.374;2023-03-26T05:27:19;8.80;99.90
37002;DHT22;22913;51.910;8.374;2023-03-26T05:30:06;8.70;99.90
37002;DHT22;22913;51.910;8.374;2023-03-26T05:32:53;8.70;99.90
37002;DHT22;22913;51.910;8.374;2023-03-26T05:35:41;8.70;99.90
37002;DHT22;22913;51.910;8.374;2023-03-26T05:38:30;8.70;99.90
37002;DHT22;22913;51.910;8.374;2023-03-26T05:41:16;8.70;99.90
37002;DHT22;22913;51.910;8.374;2023-03-26T05:44:04;8.70;99.90
37002;DHT22;22913;51.910;8.374;2023-03-26T05:46:50;8.70;99.90
37002;DHT22;22913;51.910;8.374;2023-03-26T05:49:36;8.70;99.90
37002;DHT22;22913;51.910;8.374;2023-03-26T05:52:23;8.70;99.90
37002;DHT22;22913;51.910;8.374;2023-03-26T05:55:09;8.80;99.90
37002;DHT22;22913;51.910;8.374;2023-03-26T05:57:55;8.80;99.90
37002;DHT22;22913;51.910;8.374;2023-03-26T06:00:41;8.80;99.90
37002;DHT22;22913;51.910;8.374;2023-03-26T06:03:32;8.80;99.90
37002;DHT22;22913;51.910;8.374;2023-03-26T06:06:19;8.80;99.90
37002;DHT22;22913;51.910;8.374;2023-03-26T06:09:06;8.80;99.90
37002;DHT22;22913;51.910;8.374;2023-03-26T06:11:52;8.90;99.90
37002;DHT22;22913;51.910;8.374;2023-03-26T06:14:42;8.80;99.90
37002;DHT22;22913;51.910;8.374;2023-03-26T06:17:29;8.90;99.90
37002;DHT22;22913;51.910;8.374;2023-03-26T06:20:16;8.90;99.90
37002;DHT22;22913;51.910;8.374;2023-03-26T06:23:02;8.90;99.90
37002;DHT22;22913;51.910;8.374;2023-03-26T06:25:49;8.90;99.90
37002;DHT22;22913;51.910;8.374;2023-03-26T06:28:35;8.90;99.90
37002;DHT22;22913;51.910;8.374;2023-03-26T06:31:20;8.90;99.90
37002;DHT22;22913;51.910;8.374;2023-03-26T06:34:07;9.00;99.90
37002;DHT22;22913;51.910;8.374;2023-03-26T06:36:53;8.90;99.90
37002;DHT22;22913;51.910;8.374;2023-03-26T06:39:40;9.00;99.90
37002;DHT22;22913;51.910;8.374;2023-03-26T06:42:27;9.00;99.90
37002;DHT22;22913;51.910;8.374;2023-03-26T06:45:13;9.10;99.90
37002;DHT22;22913;51.910;8.374;2023-03-26T06:47:58;9.10;99.90
37002;DHT22;22913;51.910;8.374;2023-03-26T06:50:44;9.20;99.90
37002;DHT22;22913;51.910;8.374;2023-03-26T06:53:30;9.20;99.90
37002;DHT22;22913;51.910;8.374;2023-03-26T06:56:16;9.20;99.90
37002;DHT22;22913;51.910;8.374;2023-03-26T06:59:03;9.20;99.90
37002;DHT22;22913;51.910;8.374;2023-03-26T07:01:48;9.20;99.90
37002;DHT22;22913;51.910;8.374;2023-03-26T07:04:34;9.20;99.90
37002;DHT22;22913;51.910;8.374;2023-03-26T07:07:20;9.30;99.90
37002;DHT22;22913;51.910;8.374;2023-03-26T07:10:08;9.30;99.90
37002;DHT22;22913;51.910;8.374;2023-03-26T07:12:54;9.20;99.90
37002;DHT22;22913;51.910;8.374;2023-03-26T07:15:41;9.30;99.90
37002;DHT22;22913;51.910;8.374;2023-03-26T07:18:26;9.30;99.90
37002;DHT22;22913;51.910;8.374;2023-03-26T07:21:13;9.30;99.90
37002;DHT22;22913;51.910;8.374;2023-03-26T07:23:59;9.30;99.90
37002;DHT22;22913;51.910;8.374;2023-03-26T07:26:51;9.40;99.90
37002;DHT22;22913;51.910;8.374;2023-03-26T07:29:44;9.60;99.90
37002;DHT22;22913;51.910;8.374;2023-03-26T07:32:38;9.60;99.90
37002;DHT22;22913;51.910;8.374;2023-03-26T07:35:29;9.70;99.90
37002;DHT22;22913;51.910;8.374;2023-03-26T07:38:28;9.80;99.90
37002;DHT22;22913;51.910;8.374;2023-03-26T07:41:22;9.80;99.90
37002;DHT22;22913;51.910;8.374;2023-03-26T07:44:30;9.70;99.90
37002;DHT22;22913;51.910;8.374;2023-03-26T07:47:22;9.70;99.90
37002;DHT22;22913;51.910;8.374;2023-03-26T07:50:14;9.70;99.90
37002;DHT22;22913;51.910;8.374;2023-03-26T07:53:00;9.80;99.90
37002;DHT22;22913;51.910;8.374;2023-03-26T07:55:51;9.80;99.90
37002;DHT22;22913;51.910;8.374;2023-03-26T07:58:48;9.90;99.90
37002;DHT22;22913;51.910;8.374;2023-03-26T08:01:45;9.90;99.90
37002;DHT22;22913;51.910;8.374;2023-03-26T08:04:45;9.90;99.90
37002;DHT22;22913;51.910;8.374;2023-03-26T08:07:41;10.00;99.90
37002;DHT22;22913;51.910;8.374;2023-03-26T08:10:37;10.10;99.90
37002;DHT22;22913;51.910;8.374;2023-03-26T08:13:32;10.10;99.90
37002;DHT22;22913;51.910;8.374;2023-03-26T08:16:24;10.10;99.90
37002;DHT22;22913;51.910;8.374;2023-03-26T08:19:27;10.20;99.90
37002;DHT22;22913;51.910;8.374;2023-03-26T08:22:17;10.30;99.90
37002;DHT22;22913;51.910;8.374;2023-03-26T08:25:19;10.30;99.90
37002;DHT22;22913;51.910;8.374;2023-03-26T08:28:26;10.40;99.90
37002;DHT22;22913;51.910;8.374;2023-03-26T08:31:14;10.50;99.90
37002;DHT22;22913;51.910;8.374;2023-03-26T08:34:02;10.50;99.90
37002;DHT22;22913;51.910;8.374;2023-03-26T08:36:48;10.60;99.90
37002;DHT22;22913;51.910;8.374;2023-03-26T08:39:34;10.70;99.90
37002;DHT22;22913;51.910;8.374;2023-03-26T08:43:08;10.80;99.90
37002;DHT22;22913;51.910;8.374;2023-03-26T08:46:44;11.00;99.90
37002;DHT22;22913;51.910;8.374;2023-03-26T08:53:16;11.00;99.90
37002;DHT22;22913;51.910;8.374;2023-03-26T08:56:10;11.10;99.90
37002;DHT22;22913;51.910;8.374;2023-03-26T09:02:49;10.90;99.90
37002;DHT22;22913;51.910;8.374;2023-03-26T09:05:54;11.00;99.90
37002;DHT22;22913;51.910;8.374;2023-03-26T09:19:10;11.00;99.90
37002;DHT22;22913;51.910;8.374;2023-03-26T09:22:22;11.00;99.90
37002;DHT22;22913;51.910;8.374;2023-03-26T09:25:45;10.90;99.90
37002;DHT22;22913;51.910;8.374;2023-03-26T09:29:01;10.90;99.90
37002;DHT22;22913;51.910;8.374;2023-03-26T09:32:18;11.00;99.90
37002;DHT22;22913;51.910;8.374;2023-03-26T09:35:20;10.90;99.90
37002;DHT22;22913;51.910;8.374;2023-03-26T09:38:14;10.80;99.90
37002;DHT22;22913;51.910;8.374;2023-03-26T09:41:09;10.90;99.90
37002;DHT22;22913;51.910;8.374;2023-03-26T09:44:16;10.80;99.90
37002;DHT22;22913;51.910;8.374;2023-03-26T09:50:34;10.80;99.90
37002;DHT22;22913;51.910;8.374;2023-03-26T09:53:41;10.90;99.90
37002;DHT22;22913;51.910;8.374;2023-03-26T09:56:37;11.00;99.90
37002;DHT22;22913;51.910;8.374;2023-03-26T09:59:36;11.00;99.90
37002;DHT22;22913;51.910;8.374;2023-03-26T10:02:42;11.10;99.90
37002;DHT22;22913;51.910;8.374;2023-03-26T10:05:39;11.00;99.90
37002;DHT22;22913;51.910;8.374;2023-03-26T10:08:38;11.00;99.90
37002;DHT22;22913;51.910;8.374;2023-03-26T10:11:38;11.00;99.90
37002;DHT22;22913;51.910;8.374;2023-03-26T10:14:33;11.00;99.90
37002;DHT22;22913;51.910;8.374;2023-03-26T10:17:32;10.90;99.90
37002;DHT22;22913;51.910;8.374;2023-03-26T10:20:48;10.80;99.90
37002;DHT22;22913;51.910;8.374;2023-03-26T10:27:00;10.70;99.90
37002;DHT22;22913;51.910;8.374;2023-03-26T10:33:11;10.70;99.90
37002;DHT22;22913;51.910;8.374;2023-03-26T10:36:12;10.70;99.90
37002;DHT22;22913;51.910;8.374;2023-03-26T10:39:24;10.70;99.90
37002;DHT22;22913;51.910;8.374;2023-03-26T10:42:32;10.60;99.90
37002;DHT22;22913;51.910;8.374;2023-03-26T10:45:33;10.60;99.90
37002;DHT22;22913;51.910;8.374;2023-03-26T10:48:26;10.60;99.90
37002;DHT22;22913;51.910;8.374;2023-03-26T10:51:29;10.60;99.90
37002;DHT22;22913;51.910;8.374;2023-03-26T10:54:25;10.50;99.90
37002;DHT22;22913;51.910;8.374;2023-03-26T10:57:23;10.40;99.90
37002;DHT22;22913;51.910;8.374;2023-03-26T11:00:17;10.40;99.90
37002;DHT22;22913;51.910;8.374;2023-03-26T11:03:25;10.40;99.90
37002;DHT22;22913;51.910;8.374;2023-03-26T11:06:34;10.40;99.90
37002;DHT22;22913;51.910;8.374;2023-03-26T11:09:28;10.30;99.90
37002;DHT22;22913;51.910;8.374;2023-03-26T11:12:21;10.40;99.90
37002;DHT22;22913;51.910;8.374;2023-03-26T11:15:17;10.50;99.90
37002;DHT22;22913;51.910;8.374;2023-03-26T11:18:11;10.60;99.90
37002;DHT22;22913;51.910;8.374;2023-03-26T11:21:04;10.80;99.90
37002;DHT22;22913;51.910;8.374;2023-03-26T11:24:01;10.90;99.90
37002;DHT22;22913;51.910;8.374;2023-03-26T11:26:51;10.90;99.90
37002;DHT22;22913;51.910;8.374;2023-03-26T11:29:43;11.00;99.90
37002;DHT22;22913;51.910;8.374;2023-03-26T11:32:36;11.00;99.90
37002;DHT22;22913;51.910;8.374;2023-03-26T11:35:25;11.00;99.90
37002;DHT22;22913;51.910;8.374;2023-03-26T11:38:18;11.00;99.90
37002;DHT22;22913;51.910;8.374;2023-03-26T11:41:12;11.10;99.90
37002;DHT22;22913;51.910;8.374;2023-03-26T11:44:02;10.90;99.90
37002;DHT22;22913;51.910;8.374;2023-03-26T11:46:51;10.90;99.90
37002;DHT22;22913;51.910;8.374;2023-03-26T11:49:43;10.70;99.90
37002;DHT22;22913;51.910;8.374;2023-03-26T11:52:29;10.60;99.90
37002;DHT22;22913;51.910;8.374;2023-03-26T11:55:15;10.60;99.90
37002;DHT22;22913;51.910;8.374;2023-03-26T11:58:05;10.70;99.90
37002;DHT22;22913;51.910;8.374;2023-03-26T12:00:56;10.60;99.90
37002;DHT22;22913;51.910;8.374;2023-03-26T12:03:42;10.60;99.90
37002;DHT22;22913;51.910;8.374;2023-03-26T12:06:30;10.60;99.90
37002;DHT22;22913;51.910;8.374;2023-03-26T12:09:16;10.60;99.90
37002;DHT22;22913;51.910;8.374;2023-03-26T12:12:03;10.70;99.90
37002;DHT22;22913;51.910;8.374;2023-03-26T12:14:51;10.80;99.90
37002;DHT22;22913;51.910;8.374;2023-03-26T12:17:38;10.80;99.90
37002;DHT22;22913;51.910;8.374;2023-03-26T12:20:34;10.80;99.90
37002;DHT22;22913;51.910;8.374;2023-03-26T12:23:40;10.70;99.90
37002;DHT22;22913;51.910;8.374;2023-03-26T12:26:35;10.70;99.90
37002;DHT22;22913;51.910;8.374;2023-03-26T12:29:21;10.80;99.90
37002;DHT22;22913;51.910;8.374;2023-03-26T12:32:12;10.90;99.90
37002;DHT22;22913;51.910;8.374;2023-03-26T12:35:04;10.90;99.90
37002;DHT22;22913;51.910;8.374;2023-03-26T12:37:50;10.90;99.90
37002;DHT22;22913;51.910;8.374;2023-03-26T12:40:36;10.90;99.90
37002;DHT22;22913;51.910;8.374;2023-03-26T12:43:27;10.90;99.90
37002;DHT22;22913;51.910;8.374;2023-03-26T12:46:25;10.80;99.90
37002;DHT22;22913;51.910;8.374;2023-03-26T12:49:13;10.80;99.90
37002;DHT22;22913;51.910;8.374;2023-03-26T12:52:08;10.80;99.90
37002;DHT22;22913;51.910;8.374;2023-03-26T12:55:02;10.70;99.90
37002;DHT22;22913;51.910;8.374;2023-03-26T12:58:00;10.50;99.90
37002;DHT22;22913;51.910;8.374;2023-03-26T13:00:55;10.40;99.90
37002;DHT22;22913;51.910;8.374;2023-03-26T13:04:04;10.40;99.90
37002;DHT22;22913;51.910;8.374;2023-03-26T13:06:54;10.30;99.90
37002;DHT22;22913;51.910;8.374;2023-03-26T13:09:52;10.30;99.90
37002;DHT22;22913;51.910;8.374;2023-03-26T13:12:46;10.30;99.90
37002;DHT22;22913;51.910;8.374;2023-03-26T13:15:37;10.30;99.90
37002;DHT22;22913;51.910;8.374;2023-03-26T13:18:31;10.30;99.90
37002;DHT22;22913;51.910;8.374;2023-03-26T13:21:28;10.30;99.90
37002;DHT22;22913;51.910;8.374;2023-03-26T13:24:25;10.30;99.90
37002;DHT22;22913;51.910;8.374;2023-03-26T13:27:25;10.30;99.90
37002;DHT22;22913;51.910;8.374;2023-03-26T13:30:21;10.20;99.90
37002;DHT22;22913;51.910;8.374;2023-03-26T13:33:27;10.30;99.90
37002;DHT22;22913;51.910;8.374;2023-03-26T13:36:17;10.30;99.90
37002;DHT22;22913;51.910;8.374;2023-03-26T13:39:15;10.40;99.90
37002;DHT22;22913;51.910;8.374;2023-03-26T13:42:17;10.30;99.90
37002;DHT22;22913;51.910;8.374;2023-03-26T13:45:13;10.40;99.90
37002;DHT22;22913;51.910;8.374;2023-03-26T13:48:02;10.40;99.90
37002;DHT22;22913;51.910;8.374;2023-03-26T13:50:55;10.50;99.90
37002;DHT22;22913;51.910;8.374;2023-03-26T13:53:46;10.50;99.90
37002;DHT22;22913;51.910;8.374;2023-03-26T13:56:37;10.60;99.90
37002;DHT22;22913;51.910;8.374;2023-03-26T13:59:30;10.50;99.90
37002;DHT22;22913;51.910;8.374;2023-03-26T14:02:22;10.60;99.90
37002;DHT22;22913;51.910;8.374;2023-03-26T14:05:14;10.60;99.90
37002;DHT22;22913;51.910;8.374;2023-03-26T14:08:04;10.70;99.90
37002;DHT22;22913;51.910;8.374;2023-03-26T14:10:58;10.70;99.90
37002;DHT22;22913;51.910;8.374;2023-03-26T14:13:53;10.70;99.90
37002;DHT22;22913;51.910;8.374;2023-03-26T14:16:45;10.80;99.90
37002;DHT22;22913;51.910;8.374;2023-03-26T14:19:54;10.80;99.90
37002;DHT22;22913;51.910;8.374;2023-03-26T14:22:59;10.90;99.90
37002;DHT22;22913;51.910;8.374;2023-03-26T14:26:01;10.90;99.90
37002;DHT22;22913;51.910;8.374;2023-03-26T14:29:08;10.80;99.90
37002;DHT22;22913;51.910;8.374;2023-03-26T14:32:15;10.90;99.90
37002;DHT22;22913;51.910;8.374;2023-03-26T14:35:11;10.80;99.90
37002;DHT22;22913;51.910;8.374;2023-03-26T14:41:30;10.80;99.90
37002;DHT22;22913;51.910;8.374;2023-03-26T14:47:36;10.70;99.90
37002;DHT22;22913;51.910;8.374;2023-03-26T14:50:42;10.60;99.90
37002;DHT22;22913;51.910;8.374;2023-03-26T14:53:32;10.60;99.90
37002;DHT22;22913;51.910;8.374;2023-03-26T14:56:47;10.60;99.90
37002;DHT22;22913;51.910;8.374;2023-03-26T15:03:46;10.40;99.90
37002;DHT22;22913;51.910;8.374;2023-03-26T15:10:16;10.40;99.90
37002;DHT22;22913;51.910;8.374;2023-03-26T15:13:30;10.40;99.90
37002;DHT22;22913;51.910;8.374;2023-03-26T15:16:48;10.20;99.90
37002;DHT22;22913;51.910;8.374;2023-03-26T15:23:29;10.10;99.90
37002;DHT22;22913;51.910;8.374;2023-03-26T15:30:11;10.00;99.90
37002;DHT22;22913;51.910;8.374;2023-03-26T15:36:52;9.60;99.90
37002;DHT22;22913;51.910;8.374;2023-03-26T15:39:56;9.60;99.90
37002;DHT22;22913;51.910;8.374;2023-03-26T15:43:02;9.50;99.90
37002;DHT22;22913;51.910;8.374;2023-03-26T15:45:51;9.30;99.90
37002;DHT22;22913;51.910;8.374;2023-03-26T15:48:53;9.30;99.90
37002;DHT22;22913;51.910;8.374;2023-03-26T15:51:50;9.30;99.90
37002;DHT22;22913;51.910;8.374;2023-03-26T15:54:45;9.30;99.90
37002;DHT22;22913;51.910;8.374;2023-03-26T15:57:37;9.10;99.90
37002;DHT22;22913;51.910;8.374;2023-03-26T16:00:25;9.10;99.90
37002;DHT22;22913;51.910;8.374;2023-03-26T16:03:23;9.00;99.90
37002;DHT22;22913;51.910;8.374;2023-03-26T16:06:28;9.00;99.90
37002;DHT22;22913;51.910;8.374;2023-03-26T16:09:34;8.90;99.90
37002;DHT22;22913;51.910;8.374;2023-03-26T16:12:30;8.90;99.90
37002;DHT22;22913;51.910;8.374;2023-03-26T16:15:26;8.80;99.90
37002;DHT22;22913;51.910;8.374;2023-03-26T16:18:18;8.90;99.90
37002;DHT22;22913;51.910;8.374;2023-03-26T16:21:31;9.10;99.90
37002;DHT22;22913;51.910;8.374;2023-03-26T16:24:23;9.10;99.90
37002;DHT22;22913;51.910;8.374;2023-03-26T16:27:28;9.00;99.90
37002;DHT22;22913;51.910;8.374;2023-03-26T16:30:29;8.90;99.90
37002;DHT22;22913;51.910;8.374;2023-03-26T16:33:18;8.90;99.90
37002;DHT22;22913;51.910;8.374;2023-03-26T16:36:14;8.80;99.90
37002;DHT22;22913;51.910;8.374;2023-03-26T16:39:21;8.90;99.90
37002;DHT22;22913;51.910;8.374;2023-03-26T16:42:28;9.00;99.90
37002;DHT22;22913;51.910;8.374;2023-03-26T16:45:20;8.90;99.90
37002;DHT22;22913;51.910;8.374;2023-03-26T16:48:18;8.90;99.90
37002;DHT22;22913;51.910;8.374;2023-03-26T16:51:10;8.80;99.90
37002;DHT22;22913;51.910;8.374;2023-03-26T16:54:08;8.80;99.90
37002;DHT22;22913;51.910;8.374;2023-03-26T16:57:00;8.90;99.90
37002;DHT22;22913;51.910;8.374;2023-03-26T17:00:27;8.80;99.90
37002;DHT22;22913;51.910;8.374;2023-03-26T17:03:32;8.80;99.90
37002;DHT22;22913;51.910;8.374;2023-03-26T17:06:30;8.80;99.90
37002;DHT22;22913;51.910;8.374;2023-03-26T17:09:27;8.80;99.90
37002;DHT22;22913;51.910;8.374;2023-03-26T17:12:21;8.60;99.90
37002;DHT22;22913;51.910;8.374;2023-03-26T17:15:22;8.50;99.90
37002;DHT22;22913;51.910;8.374;2023-03-26T17:18:24;8.60;99.90
37002;DHT22;22913;51.910;8.374;2023-03-26T17:21:16;8.70;99.90
37002;DHT22;22913;51.910;8.374;2023-03-26T17:24:08;8.60;99.90
37002;DHT22;22913;51.910;8.374;2023-03-26T17:27:00;8.50;99.90
37002;DHT22;22913;51.910;8.374;2023-03-26T17:30:25;8.50;99.90
37002;DHT22;22913;51.910;8.374;2023-03-26T17:33:21;8.40;99.90
37002;DHT22;22913;51.910;8.374;2023-03-26T17:36:27;8.40;99.90
37002;DHT22;22913;51.910;8.374;2023-03-26T17:39:19;8.40;99.90
37002;DHT22;22913;51.910;8.374;2023-03-26T17:42:17;8.30;99.90
37002;DHT22;22913;51.910;8.374;2023-03-26T17:45:07;8.30;99.90
37002;DHT22;22913;51.910;8.374;2023-03-26T17:47:55;8.30;99.90
37002;DHT22;22913;51.910;8.374;2023-03-26T17:50:49;8.30;99.90
37002;DHT22;22913;51.910;8.374;2023-03-26T17:53:36;8.30;99.90
37002;DHT22;22913;51.910;8.374;2023-03-26T17:56:28;8.30;99.90
37002;DHT22;22913;51.910;8.374;2023-03-26T17:59:18;8.10;99.90
37002;DHT22;22913;51.910;8.374;2023-03-26T18:02:12;8.10;99.90
37002;DHT22;22913;51.910;8.374;2023-03-26T18:05:00;8.10;99.90
37002;DHT22;22913;51.910;8.374;2023-03-26T18:11:32;7.90;99.90
37002;DHT22;22913;51.910;8.374;2023-03-26T18:14:37;7.80;99.90
37002;DHT22;22913;51.910;8.374;2023-03-26T18:17:30;7.60;99.90
37002;DHT22;22913;51.910;8.374;2023-03-26T18:20:24;7.50;99.90
37002;DHT22;22913;51.910;8.374;2023-03-26T18:23:21;7.40;99.90
37002;DHT22;22913;51.910;8.374;2023-03-26T18:26:10;7.50;99.90
37002;DHT22;22913;51.910;8.374;2023-03-26T18:29:16;7.40;99.90
37002;DHT22;22913;51.910;8.374;2023-03-26T18:32:18;7.40;99.90
37002;DHT22;22913;51.910;8.374;2023-03-26T18:35:15;7.40;99.90
37002;DHT22;22913;51.910;8.374;2023-03-26T18:38:02;7.30;99.90
37002;DHT22;22913;51.910;8.374;2023-03-26T18:40:49;7.20;99.90
37002;DHT22;22913;51.910;8.374;2023-03-26T18:43:35;7.10;99.90
37002;DHT22;22913;51.910;8.374;2023-03-26T18:46:22;7.10;99.90
37002;DHT22;22913;51.910;8.374;2023-03-26T18:49:10;7.00;99.90
37002;DHT22;22913;51.910;8.374;2023-03-26T18:51:57;6.90;99.90
37002;DHT22;22913;51.910;8.374;2023-03-26T18:54:44;6.90;99.90
37002;DHT22;22913;51.910;8.374;2023-03-26T18:57:30;6.90;99.90
37002;DHT22;22913;51.910;8.374;2023-03-26T19:00:18;6.80;99.90
37002;DHT22;22913;51.910;8.374;2023-03-26T19:03:06;6.80;99.90
37002;DHT22;22913;51.910;8.374;2023-03-26T19:05:54;6.60;99.90
37002;DHT22;22913;51.910;8.374;2023-03-26T19:08:43;6.50;99.90
37002;DHT22;22913;51.910;8.374;2023-03-26T19:11:29;6.50;99.90
37002;DHT22;22913;51.910;8.374;2023-03-26T19:14:16;6.60;99.90
37002;DHT22;22913;51.910;8.374;2023-03-26T19:17:03;6.50;99.90